createdAt,value
2022-10-15T00:00:19.872Z,100571.06
2022-10-15T00:02:51.000Z,100561.66
2022-10-15T00:05:20.275Z,100560.00
2022-10-15T00:07:49.502Z,100551.41
2022-10-15T00:10:25.863Z,100560.94
2022-10-15T00:12:55.148Z,100560.13
2022-10-15T00:15:24.732Z,100542.78
2022-10-15T00:18:02.531Z,100525.53
2022-10-15T00:20:36.732Z,100562.81
2022-10-15T00:23:05.859Z,100569.59
2022-10-15T00:25:34.974Z,100558.44
2022-10-15T00:28:04.143Z,100554.94
2022-10-15T00:30:33.343Z,100526.28
2022-10-15T00:33:09.628Z,100564.38
2022-10-15T00:38:22.593Z,100525.38
2022-10-15T00:40:52.042Z,100562.56
2022-10-15T00:43:40.758Z,100566.97
2022-10-15T00:46:19.605Z,100566.09
2022-10-15T00:48:53.064Z,100553.19
2022-10-15T00:51:24.862Z,100550.47
2022-10-15T00:53:56.459Z,100537.56
2022-10-15T00:56:28.213Z,100555.81
2022-10-15T00:58:58.789Z,100543.72
2022-10-15T01:01:33.071Z,100555.84
2022-10-15T01:04:08.031Z,100562.78
2022-10-15T01:09:23.500Z,100560.97
2022-10-15T01:11:56.185Z,100566.19
2022-10-15T01:14:37.117Z,100554.94
2022-10-15T01:17:11.572Z,100565.41
2022-10-15T01:20:05.204Z,100561.94
2022-10-15T01:22:55.296Z,100564.56
2022-10-15T01:25:38.846Z,100563.72
2022-10-15T01:28:21.080Z,100555.06
2022-10-15T01:31:01.914Z,100571.44
2022-10-15T01:33:38.728Z,100569.72
2022-10-15T01:36:17.614Z,100561.94
2022-10-15T01:38:54.206Z,100575.69
2022-10-15T01:41:32.913Z,100579.94
2022-10-15T01:44:07.174Z,100579.06
2022-10-15T01:47:03.512Z,100575.66
2022-10-15T01:49:36.492Z,100570.53
2022-10-15T01:52:16.429Z,100556.66
2022-10-15T01:54:49.183Z,100576.47
2022-10-15T02:00:04.523Z,100579.00
2022-10-15T02:05:28.700Z,100578.97
2022-10-15T02:08:09.249Z,100574.59
2022-10-15T02:10:49.097Z,100583.28
2022-10-15T02:13:36.348Z,100590.19
2022-10-15T02:16:31.239Z,100593.66
2022-10-15T02:19:09.176Z,100579.06
2022-10-15T02:21:44.749Z,100563.53
2022-10-15T02:24:18.063Z,100585.22
2022-10-15T02:26:48.549Z,100586.06
2022-10-15T02:29:23.192Z,100580.09
2022-10-15T02:31:53.404Z,100586.03
2022-10-15T02:34:29.648Z,100595.63
2022-10-15T02:37:04.098Z,100589.44
2022-10-15T02:39:38.880Z,100592.09
2022-10-15T02:42:19.792Z,100595.59
2022-10-15T02:44:50.826Z,100598.09
2022-10-15T02:47:20.211Z,100600.75
2022-10-15T02:49:51.593Z,100603.31
2022-10-15T02:52:26.101Z,100604.16
2022-10-15T02:54:55.561Z,100591.91
2022-10-15T02:57:24.992Z,100607.56
2022-10-15T02:59:54.594Z,100592.88
2022-10-15T03:02:23.719Z,100608.44
2022-10-15T03:04:55.118Z,100611.09
2022-10-15T03:07:26.116Z,100607.69
2022-10-15T03:09:55.557Z,100608.50
2022-10-15T03:12:26.110Z,100606.72
2022-10-15T03:14:56.153Z,100610.28
2022-10-15T03:17:26.489Z,100591.97
2022-10-15T03:19:57.976Z,100601.56
2022-10-15T03:22:27.220Z,100613.69
2022-10-15T03:25:01.567Z,100611.09
2022-10-15T03:27:32.955Z,100611.09
2022-10-15T03:30:15.860Z,100606.75
2022-10-15T03:32:45.101Z,100610.22
2022-10-15T03:35:16.318Z,100618.81
2022-10-15T03:37:50.748Z,100613.72
2022-10-15T03:40:25.982Z,100617.13
2022-10-15T03:42:59.381Z,100625.75
2022-10-15T03:45:29.070Z,100618.00
2022-10-15T03:48:13.251Z,100617.16
2022-10-15T03:53:33.992Z,100622.38
2022-10-15T03:56:06.234Z,100618.97
2022-10-15T03:58:38.958Z,100618.97
2022-10-15T04:01:18.421Z,100620.69
2022-10-15T04:03:48.496Z,100623.28
2022-10-15T04:06:22.102Z,100622.47
2022-10-15T04:11:26.994Z,100621.69
2022-10-15T04:14:07.834Z,100623.41
2022-10-15T04:16:42.029Z,100628.56
2022-10-15T04:19:17.262Z,100623.41
2022-10-15T04:22:01.422Z,100623.53
2022-10-15T04:24:35.377Z,100616.66
2022-10-15T04:29:44.223Z,100624.41
2022-10-15T04:32:17.602Z,100620.97
2022-10-15T04:34:48.659Z,100627.00
2022-10-15T04:37:22.150Z,100634.75
2022-10-15T04:39:51.523Z,100627.06
2022-10-15T04:42:21.925Z,100629.66
2022-10-15T04:44:51.687Z,100632.38
2022-10-15T04:47:25.976Z,100634.09
2022-10-15T04:50:12.280Z,100635.00
2022-10-15T04:53:06.921Z,100637.69
2022-10-15T04:55:44.990Z,100634.31
2022-10-15T04:58:14.556Z,100639.50
2022-10-15T05:00:43.851Z,100635.25
2022-10-15T05:03:29.010Z,100641.34
2022-10-15T05:06:06.605Z,100642.22
2022-10-15T05:08:41.381Z,100642.31
2022-10-15T05:11:21.687Z,100640.69
2022-10-15T05:14:03.171Z,100645.88
2022-10-15T05:16:35.323Z,100633.84
2022-10-15T05:19:07.535Z,100645.09
2022-10-15T05:21:44.014Z,100643.38
2022-10-15T05:24:27.592Z,100648.59
2022-10-15T05:27:03.230Z,100647.72
2022-10-15T05:29:35.727Z,100646.84
2022-10-15T05:32:05.004Z,100649.34
2022-10-15T05:34:34.131Z,100652.75
2022-10-15T05:37:08.683Z,100656.16
2022-10-15T05:39:39.903Z,100662.22
2022-10-15T05:42:11.318Z,100654.56
2022-10-15T05:44:58.718Z,100658.94
2022-10-15T05:47:27.912Z,100659.03
2022-10-15T05:50:14.111Z,100657.41
2022-10-15T05:52:50.858Z,100658.34
2022-10-15T05:55:55.076Z,100671.34
2022-10-15T05:58:33.294Z,100659.31
2022-10-15T06:03:56.292Z,100674.94
2022-10-15T06:06:28.608Z,100660.28
2022-10-15T06:09:02.896Z,100679.25
2022-10-15T06:11:34.122Z,100677.63
2022-10-15T06:14:03.400Z,100669.00
2022-10-15T06:16:32.916Z,100671.69
2022-10-15T06:19:02.095Z,100664.81
2022-10-15T06:21:33.814Z,100684.78
2022-10-15T06:24:05.177Z,100631.25
2022-10-15T06:26:38.919Z,100677.13
2022-10-15T06:29:08.164Z,100678.81
2022-10-15T06:31:37.389Z,100677.94
2022-10-15T06:34:11.929Z,100679.72
2022-10-15T06:36:41.524Z,100671.09
2022-10-15T06:39:10.590Z,100679.78
2022-10-15T06:44:19.303Z,100677.25
2022-10-15T06:46:48.449Z,100681.59
2022-10-15T06:49:17.546Z,100686.78
2022-10-15T06:51:46.771Z,100686.81
2022-10-15T06:54:16.044Z,100689.44
2022-10-15T06:56:47.095Z,100694.63
2022-10-15T06:59:16.272Z,100683.38
2022-10-15T07:01:45.460Z,100622.63
2022-10-15T07:04:14.916Z,100697.00
2022-10-15T07:06:44.062Z,100696.91
2022-10-15T07:09:13.235Z,100681.44
2022-10-15T07:11:42.378Z,100688.44
2022-10-15T07:14:13.665Z,100642.78
2022-10-15T07:19:18.766Z,100699.94
2022-10-15T07:21:54.095Z,100701.66
2022-10-15T07:24:23.404Z,100699.91
2022-10-15T07:26:52.490Z,100701.63
2022-10-15T07:29:23.571Z,100711.06
2022-10-15T07:31:57.982Z,100705.88
2022-10-15T07:34:27.918Z,100713.66
2022-10-15T07:36:57.046Z,100711.94
2022-10-15T07:39:26.159Z,100711.97
2022-10-15T07:41:56.131Z,100711.16
2022-10-15T07:44:27.166Z,100712.91
2022-10-15T07:46:56.413Z,100721.56
2022-10-15T07:49:25.614Z,100712.13
2022-10-15T07:51:55.937Z,100716.44
2022-10-15T07:54:27.433Z,100719.91
2022-10-15T07:57:05.816Z,100716.50
2022-10-15T07:59:42.070Z,100720.84
2022-10-15T08:02:16.646Z,100723.44
2022-10-15T08:04:50.937Z,100715.66
2022-10-15T08:07:20.122Z,100721.72
2022-10-15T08:09:49.290Z,100723.47
2022-10-15T08:12:18.598Z,100724.38
2022-10-15T08:14:54.890Z,100715.75
2022-10-15T08:17:24.110Z,100732.97
2022-10-15T08:19:53.300Z,100726.91
2022-10-15T08:22:22.669Z,100722.59
2022-10-15T08:24:52.130Z,100717.44
2022-10-15T08:27:21.304Z,100721.78
2022-10-15T08:29:50.506Z,100725.22
2022-10-15T08:32:22.097Z,100714.88
2022-10-15T08:34:53.546Z,100729.53
2022-10-15T08:37:22.893Z,100733.84
2022-10-15T08:39:51.967Z,100728.66
2022-10-15T08:42:24.997Z,100736.44
2022-10-15T08:45:00.212Z,100738.19
2022-10-15T08:47:42.378Z,100739.09
2022-10-15T08:50:23.874Z,100746.84
2022-10-15T08:52:54.998Z,100746.84
2022-10-15T08:55:37.302Z,100748.59
2022-10-15T08:58:15.475Z,100741.69
2022-10-15T09:00:49.293Z,100738.25
2022-10-15T09:03:39.224Z,100740.03
2022-10-15T09:06:16.641Z,100734.88
2022-10-15T09:08:58.927Z,100731.44
2022-10-15T09:11:38.643Z,100727.13
2022-10-15T09:14:16.298Z,100740.97
2022-10-15T09:16:49.577Z,100728.91
2022-10-15T09:19:23.662Z,100738.47
2022-10-15T09:21:54.297Z,100735.88
2022-10-15T09:27:09.243Z,100739.34
2022-10-15T09:29:46.032Z,100737.59
2022-10-15T09:32:21.018Z,100735.88
2022-10-15T09:35:00.040Z,100699.63
2022-10-15T09:37:36.671Z,100729.84
2022-10-15T09:40:37.717Z,100737.63
2022-10-15T09:43:07.713Z,100736.75
2022-10-15T09:45:36.793Z,100741.06
2022-10-15T09:48:17.828Z,100734.16
2022-10-15T09:50:57.655Z,100738.50
2022-10-15T09:53:38.989Z,100741.94
2022-10-15T09:56:15.605Z,100735.03
2022-10-15T09:58:58.329Z,100740.22
2022-10-15T10:01:28.834Z,100735.88
2022-10-15T10:04:12.741Z,100734.06
2022-10-15T10:06:53.419Z,100728.84
2022-10-15T10:09:32.358Z,100730.59
2022-10-15T10:12:05.790Z,100728.03
2022-10-15T10:14:38.142Z,100726.34
2022-10-15T10:17:15.088Z,100719.47
2022-10-15T10:19:44.780Z,100732.44
2022-10-15T10:22:19.394Z,100723.81
2022-10-15T10:24:53.581Z,100728.09
2022-10-15T10:27:25.643Z,100722.94
2022-10-15T10:30:04.076Z,100734.19
2022-10-15T10:32:38.102Z,100728.13
2022-10-15T10:35:28.189Z,100733.31
2022-10-15T10:37:59.360Z,100719.50
2022-10-15T10:40:37.623Z,100732.44
2022-10-15T10:43:25.712Z,100741.06
2022-10-15T10:46:02.352Z,100744.50
2022-10-15T10:48:42.668Z,100734.13
2022-10-15T10:51:21.579Z,100726.31
2022-10-15T10:54:00.978Z,100738.38
2022-10-15T10:56:38.746Z,100733.19
2022-10-15T10:59:20.723Z,100732.34
2022-10-15T11:01:52.443Z,100733.19
2022-10-15T11:04:27.071Z,100727.13
2022-10-15T11:07:05.017Z,100733.19
2022-10-15T11:09:53.751Z,100727.13
2022-10-15T11:12:45.518Z,100731.44
2022-10-15T11:15:31.969Z,100730.59
2022-10-15T11:18:20.642Z,100726.25
2022-10-15T11:21:00.709Z,100733.19
2022-10-15T11:23:48.910Z,100716.81
2022-10-15T11:26:41.676Z,100726.38
2022-10-15T11:29:36.653Z,100717.75
2022-10-15T11:32:22.196Z,100725.50
2022-10-15T11:35:24.079Z,100707.38
2022-10-15T11:38:17.697Z,100724.69
2022-10-15T11:41:01.466Z,100728.13
2022-10-15T11:43:54.920Z,100722.09
2022-10-15T11:46:36.504Z,100720.34
2022-10-15T11:49:17.406Z,100713.47
2022-10-15T11:52:04.714Z,100725.53
2022-10-15T11:54:40.237Z,100721.22
2022-10-15T11:57:14.469Z,100716.88
2022-10-15T11:59:56.515Z,100719.47
2022-10-15T12:02:32.618Z,100717.75
2022-10-15T12:05:07.077Z,100722.84
2022-10-15T12:07:57.584Z,100712.50
2022-10-15T12:10:41.337Z,100717.66
2022-10-15T12:13:21.687Z,100709.00
2022-10-15T12:16:02.760Z,100715.91
2022-10-15T12:18:50.800Z,100720.25
2022-10-15T12:21:34.496Z,100715.06
2022-10-15T12:24:09.403Z,100715.94
2022-10-15T12:26:39.099Z,100709.00
2022-10-15T12:29:19.888Z,100710.75
2022-10-15T12:31:59.396Z,100715.06
2022-10-15T12:34:34.359Z,100711.63
2022-10-15T12:37:08.851Z,100697.81
2022-10-15T12:39:51.641Z,100661.50
2022-10-15T12:42:29.408Z,100708.16
2022-10-15T12:45:08.032Z,100668.41
2022-10-15T12:47:54.399Z,100716.75
2022-10-15T12:56:26.286Z,100711.53
2022-10-15T12:58:57.565Z,100708.09
2022-10-15T13:04:06.462Z,100708.09
2022-10-15T13:06:39.803Z,100706.38
2022-10-15T13:09:26.036Z,100709.84
2022-10-15T13:11:57.498Z,100708.13
2022-10-15T13:14:36.900Z,100703.78
2022-10-15T13:17:15.574Z,100714.16
2022-10-15T13:19:56.047Z,100712.41
2022-10-15T13:22:27.673Z,100714.09
2022-10-15T13:24:57.784Z,100713.25
2022-10-15T13:27:34.021Z,100698.50
2022-10-15T13:30:08.680Z,100713.13
2022-10-15T13:32:42.266Z,100706.19
2022-10-15T13:35:14.888Z,100715.59
2022-10-15T13:37:46.500Z,100715.53
2022-10-15T13:40:22.481Z,100717.16
2022-10-15T13:43:01.451Z,100698.09
2022-10-15T13:45:32.920Z,100706.66
2022-10-15T13:48:03.539Z,100713.47
2022-10-15T13:50:35.126Z,100715.09
2022-10-15T13:53:13.982Z,100715.09
2022-10-15T13:55:50.112Z,100704.72
2022-10-15T13:58:29.038Z,100704.72
2022-10-15T14:01:07.577Z,100708.13
2022-10-15T14:03:38.623Z,100722.72
2022-10-15T14:06:17.849Z,100727.81
2022-10-15T14:08:48.659Z,100727.69
2022-10-15T14:11:23.493Z,100727.59
2022-10-15T14:13:57.359Z,100734.41
2022-10-15T14:16:37.745Z,100730.84
2022-10-15T14:19:14.813Z,100736.78
2022-10-15T14:21:48.177Z,100723.78
2022-10-15T14:24:23.937Z,100740.03
2022-10-15T14:26:53.347Z,100739.91
2022-10-15T14:29:27.070Z,100733.78
2022-10-15T14:31:58.961Z,100726.69
2022-10-15T14:34:32.292Z,100744.03
2022-10-15T14:37:24.790Z,100748.97
2022-10-15T14:40:06.490Z,100752.31
2022-10-15T14:42:36.879Z,100738.38
2022-10-15T14:45:14.349Z,100753.06
2022-10-15T14:47:47.772Z,100746.03
2022-10-15T14:50:17.832Z,100726.00
2022-10-15T14:52:49.605Z,100715.56
2022-10-15T14:55:27.909Z,100752.88
2022-10-15T14:57:57.489Z,100754.31
2022-10-15T15:00:29.621Z,100756.00
2022-10-15T15:03:03.504Z,100752.56
2022-10-15T15:05:32.796Z,100762.81
2022-10-15T15:08:06.453Z,100735.88
2022-10-15T15:10:36.375Z,100760.13
2022-10-15T15:13:05.812Z,100761.13
2022-10-15T15:18:21.009Z,100757.78
2022-10-15T15:20:51.681Z,100771.63
2022-10-15T15:23:23.884Z,100764.84
2022-10-15T15:25:53.725Z,100764.91
2022-10-15T15:28:25.615Z,100772.69
2022-10-15T15:30:59.139Z,100770.16
2022-10-15T15:33:30.770Z,100769.31
2022-10-15T15:36:04.692Z,100771.00
2022-10-15T15:38:47.721Z,100769.31
2022-10-15T15:41:18.838Z,100770.94
2022-10-15T15:43:53.980Z,100764.94
2022-10-15T15:51:42.726Z,100774.31
2022-10-15T15:54:11.957Z,100778.59
2022-10-15T15:56:41.484Z,100730.88
2022-10-15T15:59:10.873Z,100774.91
2022-10-15T16:01:41.743Z,100774.94
2022-10-15T16:06:53.638Z,100759.34
2022-10-15T16:09:23.917Z,100763.50
2022-10-15T16:11:53.337Z,100768.72
2022-10-15T16:14:22.520Z,100781.72
2022-10-15T16:16:57.966Z,100779.16
2022-10-15T16:19:29.635Z,100781.78
2022-10-15T16:21:58.871Z,100779.94
2022-10-15T16:24:28.299Z,100780.78
2022-10-15T16:26:58.177Z,100784.19
2022-10-15T16:29:30.368Z,100778.16
2022-10-15T16:31:59.720Z,100785.00
2022-10-15T16:34:36.116Z,100782.34
2022-10-15T16:37:05.806Z,100786.59
2022-10-15T16:39:37.003Z,100782.19
2022-10-15T16:42:08.009Z,100784.78
2022-10-15T16:44:37.429Z,100770.94
2022-10-15T16:47:06.530Z,100769.25
2022-10-15T16:49:42.910Z,100783.06
2022-10-15T16:52:12.201Z,100768.28
2022-10-15T16:54:41.334Z,100788.09
2022-10-15T16:57:11.264Z,100786.28
2022-10-15T16:59:40.403Z,100777.56
2022-10-15T17:02:15.557Z,100782.72
2022-10-15T17:04:46.898Z,100785.19
2022-10-15T17:07:16.274Z,100789.19
2022-10-15T17:09:47.395Z,100797.84
2022-10-15T17:15:06.390Z,100757.03
2022-10-15T17:17:35.738Z,100798.56
2022-10-15T17:20:08.746Z,100800.22
2022-10-15T17:22:38.149Z,100801.81
2022-10-15T17:25:08.280Z,100801.03
2022-10-15T17:27:37.457Z,100806.19
2022-10-15T17:30:08.014Z,100803.56
2022-10-15T17:35:14.251Z,100810.44
2022-10-15T17:37:48.517Z,100810.38
2022-10-15T17:40:19.419Z,100813.72
2022-10-15T17:42:55.338Z,100811.97
2022-10-15T17:45:25.134Z,100817.13
2022-10-15T17:47:54.529Z,100813.66
2022-10-15T17:50:25.845Z,100824.75
2022-10-15T17:53:02.616Z,100825.53
2022-10-15T17:55:36.652Z,100817.97
2022-10-15T17:58:06.854Z,100816.13
2022-10-15T18:00:36.022Z,100821.13
2022-10-15T18:03:05.180Z,100825.44
2022-10-15T18:05:36.764Z,100822.72
2022-10-15T18:08:11.008Z,100835.59
2022-10-15T18:10:47.233Z,100831.09
2022-10-15T18:13:16.549Z,100837.09
2022-10-15T18:15:52.169Z,100838.81
2022-10-15T18:18:26.446Z,100823.03
2022-10-15T18:20:57.950Z,100842.94
2022-10-15T18:23:29.024Z,100845.34
2022-10-15T18:26:09.296Z,100835.75
2022-10-15T18:28:51.001Z,100841.03
2022-10-15T18:31:21.679Z,100844.56
2022-10-15T18:33:53.133Z,100848.88
2022-10-15T18:36:26.290Z,100857.53
2022-10-15T18:38:56.218Z,100847.09
2022-10-15T18:41:28.144Z,100846.22
2022-10-15T18:44:04.204Z,100848.69
2022-10-15T18:46:34.592Z,100847.19
2022-10-15T18:49:04.535Z,100836.66
2022-10-15T18:51:40.751Z,100850.44
2022-10-15T18:54:11.187Z,100850.34
2022-10-15T18:56:40.730Z,100851.25
2022-10-15T18:59:09.944Z,100852.06
2022-10-15T19:01:41.525Z,100855.50
2022-10-15T19:04:12.965Z,100854.56
2022-10-15T19:06:50.650Z,100861.56
2022-10-15T19:09:21.813Z,100862.34
2022-10-15T19:11:54.058Z,100862.22
2022-10-15T19:14:29.906Z,100866.34
2022-10-15T19:17:10.597Z,100872.28
2022-10-15T19:19:39.904Z,100868.75
2022-10-15T19:22:16.048Z,100877.44
2022-10-15T19:24:45.481Z,100880.69
2022-10-15T19:27:14.564Z,100876.28
2022-10-15T19:29:43.907Z,100883.94
2022-10-15T19:32:13.068Z,100883.06
2022-10-15T19:34:42.842Z,100883.97
2022-10-15T19:37:13.966Z,100878.69
2022-10-15T19:39:50.253Z,100889.78
2022-10-15T19:44:54.415Z,100893.72
2022-10-15T19:47:24.627Z,100895.38
2022-10-15T19:49:59.107Z,100893.72
2022-10-15T19:52:34.645Z,100897.19
2022-10-15T19:55:05.547Z,100901.44
2022-10-15T19:57:35.765Z,100904.81
2022-10-15T20:00:11.384Z,100907.34
2022-10-15T20:02:43.458Z,100901.16
2022-10-15T20:05:13.064Z,100905.34
2022-10-15T20:07:44.597Z,100909.66
2022-10-15T20:10:14.033Z,100911.41
2022-10-15T20:12:43.241Z,100919.88
2022-10-15T20:15:12.889Z,100918.13
2022-10-15T20:17:47.689Z,100911.16
2022-10-15T20:20:17.334Z,100920.59
2022-10-15T20:22:48.447Z,100930.78
2022-10-15T20:25:18.258Z,100922.22
2022-10-15T20:27:49.397Z,100929.91
2022-10-15T20:30:18.620Z,100918.69
2022-10-15T20:32:48.327Z,100923.72
2022-10-15T20:35:19.675Z,100934.16
2022-10-15T20:37:51.261Z,100940.47
2022-10-15T20:40:20.573Z,100935.63
2022-10-15T20:42:49.900Z,100930.56
2022-10-15T20:45:19.430Z,100929.66
2022-10-15T20:47:56.849Z,100939.94
2022-10-15T20:50:29.587Z,100939.09
2022-10-15T20:53:06.048Z,100937.56
2022-10-15T20:55:36.632Z,100932.91
2022-10-15T20:58:06.040Z,100952.88
2022-10-15T21:00:40.536Z,100944.94
2022-10-15T21:03:09.782Z,100959.69
2022-10-15T21:05:38.997Z,100962.25
2022-10-15T21:08:10.134Z,100961.53
2022-10-15T21:10:39.656Z,100939.88
2022-10-15T21:13:08.958Z,100963.13
2022-10-15T21:18:18.925Z,100959.59
2022-10-15T21:20:48.320Z,100961.34
2022-10-15T21:23:19.563Z,100966.53
2022-10-15T21:25:49.896Z,100957.81
2022-10-15T21:28:19.077Z,100960.19
2022-10-15T21:30:48.349Z,100952.47
2022-10-15T21:33:25.689Z,100953.22
2022-10-15T21:35:54.960Z,100957.56
2022-10-15T21:38:26.098Z,100939.22
2022-10-15T21:40:55.328Z,100960.22
2022-10-15T21:43:24.533Z,100972.19
2022-10-15T21:45:53.726Z,100960.69
2022-10-15T21:50:58.158Z,100972.00
2022-10-15T21:53:29.877Z,100960.69
2022-10-15T21:56:05.173Z,100964.09
2022-10-15T21:58:35.982Z,100940.44
2022-10-15T22:01:13.570Z,100969.13
2022-10-15T22:03:46.404Z,100966.38
2022-10-15T22:06:22.235Z,100971.44
2022-10-15T22:08:53.353Z,100980.03
2022-10-15T22:11:30.060Z,100970.53
2022-10-15T22:14:08.213Z,100966.09
2022-10-15T22:16:38.802Z,100981.50
2022-10-15T22:19:09.541Z,100984.91
2022-10-15T22:21:45.550Z,100979.78
2022-10-15T22:24:29.102Z,100984.81
2022-10-15T22:27:04.653Z,100980.44
2022-10-15T22:29:35.440Z,100978.69
2022-10-15T22:32:09.857Z,100980.31
2022-10-15T22:34:39.291Z,100979.31
2022-10-15T22:37:08.438Z,100981.88
2022-10-15T22:39:40.098Z,100994.72
2022-10-15T22:42:14.285Z,100984.28
2022-10-15T22:44:43.649Z,100984.16
2022-10-15T22:47:12.883Z,100988.34
2022-10-15T22:49:42.186Z,100991.59
2022-10-15T22:52:16.459Z,100988.03
2022-10-15T22:54:47.706Z,100987.13
2022-10-15T22:57:16.904Z,100995.53
2022-10-15T22:59:46.038Z,100986.78
2022-10-15T23:02:15.217Z,100997.84
2022-10-15T23:04:44.367Z,100992.66
2022-10-15T23:07:13.654Z,100996.91
2022-10-15T23:09:42.779Z,100984.78
2022-10-15T23:12:18.971Z,101007.16
2022-10-15T23:14:49.838Z,101001.13
2022-10-15T23:17:24.827Z,100994.06
2022-10-15T23:19:53.964Z,100994.19
2022-10-15T23:22:30.030Z,100998.47
2022-10-15T23:25:04.626Z,101004.50
2022-10-15T23:27:37.383Z,100999.91
2022-10-15T23:30:23.757Z,101008.41
2022-10-15T23:32:53.754Z,101010.00
2022-10-15T23:35:22.945Z,101009.97
2022-10-15T23:37:52.226Z,101000.19
2022-10-15T23:40:21.402Z,101012.44
2022-10-15T23:42:52.649Z,101037.06
2022-10-15T23:45:26.926Z,101026.66
2022-10-15T23:47:57.288Z,101024.81
2022-10-15T23:50:26.625Z,101032.34
2022-10-15T23:53:00.676Z,101036.44
2022-10-15T23:55:39.873Z,101035.53
2022-10-15T23:58:16.297Z,101038.84
